sensor_id;sensor_type;location;lat;lon;timestamp;temperature;humidity
14122;DHT22;7139;48.114;11.442;2022-08-11T00:02:26;18.40;87.00
14122;DHT22;7139;48.114;11.442;2022-08-11T00:04:55;18.40;87.90
14122;DHT22;7139;48.114;11.442;2022-08-11T00:07:23;18.40;87.40
14122;DHT22;7139;48.114;11.442;2022-08-11T00:09:50;18.30;87.00
14122;DHT22;7139;48.114;11.442;2022-08-11T00:12:18;18.30;87.90
14122;DHT22;7139;48.114;11.442;2022-08-11T00:14:45;18.30;88.80
14122;DHT22;7139;48.114;11.442;2022-08-11T00:17:26;18.20;88.60
14122;DHT22;7139;48.114;11.442;2022-08-11T00:20:01;18.20;88.40
14122;DHT22;7139;48.114;11.442;2022-08-11T00:22:29;18.10;89.00
14122;DHT22;7139;48.114;11.442;2022-08-11T00:24:56;18.10;89.10
14122;DHT22;7139;48.114;11.442;2022-08-11T00:27:31;18.00;89.10
14122;DHT22;7139;48.114;11.442;2022-08-11T00:29:58;18.00;89.00
14122;DHT22;7139;48.114;11.442;2022-08-11T00:32:28;18.00;88.70
14122;DHT22;7139;48.114;11.442;2022-08-11T00:34:56;18.00;88.90
14122;DHT22;7139;48.114;11.442;2022-08-11T00:37:23;18.00;88.80
14122;DHT22;7139;48.114;11.442;2022-08-11T00:39:53;17.90;89.40
14122;DHT22;7139;48.114;11.442;2022-08-11T00:42:39;17.80;89.30
14122;DHT22;7139;48.114;11.442;2022-08-11T00:45:12;17.80;89.30
14122;DHT22;7139;48.114;11.442;2022-08-11T00:47:55;17.80;89.70
14122;DHT22;7139;48.114;11.442;2022-08-11T00:50:28;17.80;90.00
14122;DHT22;7139;48.114;11.442;2022-08-11T00:53:29;17.80;90.20
14122;DHT22;7139;48.114;11.442;2022-08-11T00:59:36;17.60;90.30
14122;DHT22;7139;48.114;11.442;2022-08-11T01:02:13;17.60;90.60
14122;DHT22;7139;48.114;11.442;2022-08-11T01:05:05;17.50;90.60
14122;DHT22;7139;48.114;11.442;2022-08-11T01:08:13;17.50;90.80
14122;DHT22;7139;48.114;11.442;2022-08-11T01:11:09;17.40;90.90
14122;DHT22;7139;48.114;11.442;2022-08-11T01:14:08;17.40;91.00
14122;DHT22;7139;48.114;11.442;2022-08-11T01:20:05;17.30;91.40
14122;DHT22;7139;48.114;11.442;2022-08-11T01:35:26;17.10;91.60
14122;DHT22;7139;48.114;11.442;2022-08-11T01:38:31;17.10;91.70
14122;DHT22;7139;48.114;11.442;2022-08-11T01:41:29;17.10;91.80
14122;DHT22;7139;48.114;11.442;2022-08-11T01:44:28;17.10;91.80
14122;DHT22;7139;48.114;11.442;2022-08-11T01:47:13;17.10;91.90
14122;DHT22;7139;48.114;11.442;2022-08-11T01:50:09;17.00;91.80
14122;DHT22;7139;48.114;11.442;2022-08-11T01:52:47;17.00;92.10
14122;DHT22;7139;48.114;11.442;2022-08-11T01:55:24;17.00;92.30
14122;DHT22;7139;48.114;11.442;2022-08-11T01:58:00;17.00;92.30
14122;DHT22;7139;48.114;11.442;2022-08-11T02:03:23;16.90;92.60
14122;DHT22;7139;48.114;11.442;2022-08-11T02:05:59;16.90;92.50
14122;DHT22;7139;48.114;11.442;2022-08-11T02:08:56;16.90;92.70
14122;DHT22;7139;48.114;11.442;2022-08-11T02:11:26;16.90;92.90
14122;DHT22;7139;48.114;11.442;2022-08-11T02:14:02;16.90;92.80
14122;DHT22;7139;48.114;11.442;2022-08-11T02:16:47;16.80;92.60
14122;DHT22;7139;48.114;11.442;2022-08-11T02:19:25;16.80;92.60
14122;DHT22;7139;48.114;11.442;2022-08-11T02:22:22;16.80;92.40
14122;DHT22;7139;48.114;11.442;2022-08-11T02:25:19;16.80;92.70
14122;DHT22;7139;48.114;11.442;2022-08-11T02:27:50;16.80;92.80
14122;DHT22;7139;48.114;11.442;2022-08-11T02:30:24;16.80;92.60
14122;DHT22;7139;48.114;11.442;2022-08-11T02:32:59;16.70;92.90
14122;DHT22;7139;48.114;11.442;2022-08-11T02:35:56;16.70;92.90
14122;DHT22;7139;48.114;11.442;2022-08-11T02:38:27;16.60;92.90
14122;DHT22;7139;48.114;11.442;2022-08-11T02:41:01;16.60;92.80
14122;DHT22;7139;48.114;11.442;2022-08-11T02:43:38;16.60;92.80
14122;DHT22;7139;48.114;11.442;2022-08-11T02:46:18;16.50;92.90
14122;DHT22;7139;48.114;11.442;2022-08-11T02:48:56;16.40;93.00
14122;DHT22;7139;48.114;11.442;2022-08-11T02:51:53;16.40;93.20
14122;DHT22;7139;48.114;11.442;2022-08-11T02:54:26;16.30;93.40
14122;DHT22;7139;48.114;11.442;2022-08-11T02:57:00;16.30;93.50
14122;DHT22;7139;48.114;11.442;2022-08-11T02:59:40;16.30;93.60
14122;DHT22;7139;48.114;11.442;2022-08-11T03:02:30;16.20;93.60
14122;DHT22;7139;48.114;11.442;2022-08-11T03:05:11;16.20;93.90
14122;DHT22;7139;48.114;11.442;2022-08-11T03:07:50;16.10;93.90
14122;DHT22;7139;48.114;11.442;2022-08-11T03:10:28;16.10;94.00
14122;DHT22;7139;48.114;11.442;2022-08-11T03:13:09;16.10;94.10
14122;DHT22;7139;48.114;11.442;2022-08-11T03:16:10;16.00;94.10
14122;DHT22;7139;48.114;11.442;2022-08-11T03:19:12;16.00;94.30
14122;DHT22;7139;48.114;11.442;2022-08-11T03:21:46;16.00;94.40
14122;DHT22;7139;48.114;11.442;2022-08-11T03:24:19;15.90;94.30
14122;DHT22;7139;48.114;11.442;2022-08-11T03:26:58;15.90;94.40
14122;DHT22;7139;48.114;11.442;2022-08-11T03:29:33;15.80;94.50
14122;DHT22;7139;48.114;11.442;2022-08-11T03:32:06;15.70;94.90
14122;DHT22;7139;48.114;11.442;2022-08-11T03:34:38;15.70;94.70
14122;DHT22;7139;48.114;11.442;2022-08-11T03:37:29;15.70;94.80
14122;DHT22;7139;48.114;11.442;2022-08-11T03:40:44;15.60;94.90
14122;DHT22;7139;48.114;11.442;2022-08-11T03:43:47;15.60;95.20
14122;DHT22;7139;48.114;11.442;2022-08-11T03:46:27;15.50;95.30
14122;DHT22;7139;48.114;11.442;2022-08-11T03:49:08;15.40;95.40
14122;DHT22;7139;48.114;11.442;2022-08-11T03:51:45;15.40;95.50
14122;DHT22;7139;48.114;11.442;2022-08-11T03:54:39;15.40;95.60
14122;DHT22;7139;48.114;11.442;2022-08-11T04:06:44;15.20;96.10
14122;DHT22;7139;48.114;11.442;2022-08-11T04:12:45;15.20;96.50
14122;DHT22;7139;48.114;11.442;2022-08-11T04:18:48;15.10;96.70
14122;DHT22;7139;48.114;11.442;2022-08-11T04:24:44;15.00;96.80
14122;DHT22;7139;48.114;11.442;2022-08-11T04:27:46;15.00;97.10
14122;DHT22;7139;48.114;11.442;2022-08-11T04:30:26;14.90;97.00
14122;DHT22;7139;48.114;11.442;2022-08-11T04:33:09;14.90;97.20
14122;DHT22;7139;48.114;11.442;2022-08-11T04:35:51;14.90;97.20
14122;DHT22;7139;48.114;11.442;2022-08-11T04:38:44;14.80;97.20
14122;DHT22;7139;48.114;11.442;2022-08-11T04:41:52;14.80;97.20
14122;DHT22;7139;48.114;11.442;2022-08-11T04:45:24;14.80;97.20
14122;DHT22;7139;48.114;11.442;2022-08-11T04:51:16;14.70;97.30
14122;DHT22;7139;48.114;11.442;2022-08-11T04:54:22;14.70;97.40
14122;DHT22;7139;48.114;11.442;2022-08-11T04:57:17;14.70;97.30
14122;DHT22;7139;48.114;11.442;2022-08-11T05:00:05;14.70;97.60
14122;DHT22;7139;48.114;11.442;2022-08-11T05:03:22;14.70;97.40
14122;DHT22;7139;48.114;11.442;2022-08-11T05:06:21;14.70;97.50
14122;DHT22;7139;48.114;11.442;2022-08-11T05:09:13;14.80;97.60
14122;DHT22;7139;48.114;11.442;2022-08-11T05:12:05;14.80;97.80
14122;DHT22;7139;48.114;11.442;2022-08-11T05:14:39;14.90;97.90
14122;DHT22;7139;48.114;11.442;2022-08-11T05:17:33;14.90;98.00
14122;DHT22;7139;48.114;11.442;2022-08-11T05:20:20;15.00;97.90
14122;DHT22;7139;48.114;11.442;2022-08-11T05:23:07;15.00;98.30
14122;DHT22;7139;48.114;11.442;2022-08-11T05:25:55;15.00;98.40
14122;DHT22;7139;48.114;11.442;2022-08-11T05:28:45;15.10;98.60
14122;DHT22;7139;48.114;11.442;2022-08-11T05:31:37;15.10;99.00
14122;DHT22;7139;48.114;11.442;2022-08-11T05:34:25;15.20;99.20
14122;DHT22;7139;48.114;11.442;2022-08-11T05:37:13;15.20;99.40
14122;DHT22;7139;48.114;11.442;2022-08-11T05:39:44;15.30;99.80
14122;DHT22;7139;48.114;11.442;2022-08-11T05:42:31;15.30;99.90
14122;DHT22;7139;48.114;11.442;2022-08-11T05:45:17;15.40;99.90
14122;DHT22;7139;48.114;11.442;2022-08-11T05:48:04;15.40;99.90
14122;DHT22;7139;48.114;11.442;2022-08-11T05:50:53;15.50;99.90
14122;DHT22;7139;48.114;11.442;2022-08-11T05:53:45;15.50;99.50
14122;DHT22;7139;48.114;11.442;2022-08-11T05:56:31;15.60;99.90
14122;DHT22;7139;48.114;11.442;2022-08-11T05:58:59;15.70;99.30
14122;DHT22;7139;48.114;11.442;2022-08-11T06:01:28;15.80;99.60
14122;DHT22;7139;48.114;11.442;2022-08-11T06:04:01;15.80;99.60
14122;DHT22;7139;48.114;11.442;2022-08-11T06:06:49;15.90;99.50
14122;DHT22;7139;48.114;11.442;2022-08-11T06:09:22;16.00;99.00
14122;DHT22;7139;48.114;11.442;2022-08-11T06:11:50;16.00;98.90
14122;DHT22;7139;48.114;11.442;2022-08-11T06:14:18;16.10;98.90
14122;DHT22;7139;48.114;11.442;2022-08-11T06:16:48;16.10;99.10
14122;DHT22;7139;48.114;11.442;2022-08-11T06:19:19;16.20;99.10
14122;DHT22;7139;48.114;11.442;2022-08-11T06:21:48;16.20;98.80
14122;DHT22;7139;48.114;11.442;2022-08-11T06:24:16;16.30;98.50
14122;DHT22;7139;48.114;11.442;2022-08-11T06:26:47;16.40;98.50
14122;DHT22;7139;48.114;11.442;2022-08-11T06:29:16;16.40;98.10
14122;DHT22;7139;48.114;11.442;2022-08-11T06:31:50;16.50;97.70
14122;DHT22;7139;48.114;11.442;2022-08-11T06:34:36;16.50;97.60
14122;DHT22;7139;48.114;11.442;2022-08-11T06:37:19;16.60;97.50
14122;DHT22;7139;48.114;11.442;2022-08-11T06:40:04;16.70;96.70
14122;DHT22;7139;48.114;11.442;2022-08-11T06:42:47;16.80;96.70
14122;DHT22;7139;48.114;11.442;2022-08-11T06:45:31;16.90;96.40
14122;DHT22;7139;48.114;11.442;2022-08-11T06:48:00;16.90;96.10
14122;DHT22;7139;48.114;11.442;2022-08-11T06:50:29;17.00;95.70
14122;DHT22;7139;48.114;11.442;2022-08-11T06:53:17;17.10;95.60
14122;DHT22;7139;48.114;11.442;2022-08-11T06:55:45;17.10;95.50
14122;DHT22;7139;48.114;11.442;2022-08-11T06:58:32;17.20;95.80
14122;DHT22;7139;48.114;11.442;2022-08-11T07:01:28;17.30;95.00
14122;DHT22;7139;48.114;11.442;2022-08-11T07:04:03;17.30;94.70
14122;DHT22;7139;48.114;11.442;2022-08-11T07:06:39;17.40;94.80
14122;DHT22;7139;48.114;11.442;2022-08-11T07:09:31;17.50;94.80
14122;DHT22;7139;48.114;11.442;2022-08-11T07:12:37;17.50;94.70
14122;DHT22;7139;48.114;11.442;2022-08-11T07:15:26;17.60;94.40
14122;DHT22;7139;48.114;11.442;2022-08-11T07:18:13;17.70;94.70
14122;DHT22;7139;48.114;11.442;2022-08-11T07:21:10;17.80;94.60
14122;DHT22;7139;48.114;11.442;2022-08-11T07:24:00;17.90;94.30
14122;DHT22;7139;48.114;11.442;2022-08-11T07:26:49;18.00;94.40
14122;DHT22;7139;48.114;11.442;2022-08-11T07:29:36;18.20;94.20
14122;DHT22;7139;48.114;11.442;2022-08-11T07:32:13;18.20;94.10
14122;DHT22;7139;48.114;11.442;2022-08-11T07:34:46;18.30;94.10
14122;DHT22;7139;48.114;11.442;2022-08-11T07:37:16;18.40;94.40
14122;DHT22;7139;48.114;11.442;2022-08-11T07:39:47;18.50;93.70
14122;DHT22;7139;48.114;11.442;2022-08-11T07:42:19;18.70;93.70
14122;DHT22;7139;48.114;11.442;2022-08-11T07:44:47;18.80;94.20
14122;DHT22;7139;48.114;11.442;2022-08-11T07:47:34;18.90;93.30
14122;DHT22;7139;48.114;11.442;2022-08-11T07:50:19;19.10;93.10
14122;DHT22;7139;48.114;11.442;2022-08-11T07:53:04;19.20;92.70
14122;DHT22;7139;48.114;11.442;2022-08-11T07:55:32;19.30;92.40
14122;DHT22;7139;48.114;11.442;2022-08-11T07:58:00;19.40;92.80
14122;DHT22;7139;48.114;11.442;2022-08-11T08:00:50;19.60;93.30
14122;DHT22;7139;48.114;11.442;2022-08-11T08:03:35;19.70;92.70
14122;DHT22;7139;48.114;11.442;2022-08-11T08:06:21;19.90;91.80
14122;DHT22;7139;48.114;11.442;2022-08-11T08:09:07;20.10;91.30
14122;DHT22;7139;48.114;11.442;2022-08-11T08:11:53;20.10;91.60
14122;DHT22;7139;48.114;11.442;2022-08-11T08:14:38;20.30;92.60
14122;DHT22;7139;48.114;11.442;2022-08-11T08:17:22;20.50;92.30
14122;DHT22;7139;48.114;11.442;2022-08-11T08:20:11;20.70;91.70
14122;DHT22;7139;48.114;11.442;2022-08-11T08:22:39;21.00;92.20
14122;DHT22;7139;48.114;11.442;2022-08-11T08:25:07;21.10;92.40
14122;DHT22;7139;48.114;11.442;2022-08-11T08:27:36;21.30;90.20
14122;DHT22;7139;48.114;11.442;2022-08-11T08:30:05;21.40;90.30
14122;DHT22;7139;48.114;11.442;2022-08-11T08:32:50;21.50;90.80
14122;DHT22;7139;48.114;11.442;2022-08-11T08:35:18;21.70;90.80
14122;DHT22;7139;48.114;11.442;2022-08-11T08:37:45;21.80;90.50
14122;DHT22;7139;48.114;11.442;2022-08-11T08:40:14;21.90;90.00
14122;DHT22;7139;48.114;11.442;2022-08-11T08:42:46;22.10;90.40
14122;DHT22;7139;48.114;11.442;2022-08-11T08:45:16;22.10;89.20
14122;DHT22;7139;48.114;11.442;2022-08-11T08:47:46;22.20;87.60
14122;DHT22;7139;48.114;11.442;2022-08-11T08:50:16;22.30;88.10
14122;DHT22;7139;48.114;11.442;2022-08-11T08:52:49;22.50;90.40
14122;DHT22;7139;48.114;11.442;2022-08-11T08:55:18;22.60;89.30
14122;DHT22;7139;48.114;11.442;2022-08-11T08:57:49;22.60;87.70
14122;DHT22;7139;48.114;11.442;2022-08-11T09:00:18;22.50;85.80
14122;DHT22;7139;48.114;11.442;2022-08-11T09:02:46;22.50;86.80
14122;DHT22;7139;48.114;11.442;2022-08-11T09:05:16;22.60;88.20
14122;DHT22;7139;48.114;11.442;2022-08-11T09:07:44;22.60;88.00
14122;DHT22;7139;48.114;11.442;2022-08-11T09:10:13;22.60;89.40
14122;DHT22;7139;48.114;11.442;2022-08-11T09:12:42;22.70;88.80
14122;DHT22;7139;48.114;11.442;2022-08-11T09:15:12;23.00;90.30
14122;DHT22;7139;48.114;11.442;2022-08-11T09:17:43;23.30;89.60
14122;DHT22;7139;48.114;11.442;2022-08-11T09:20:12;23.50;86.80
14122;DHT22;7139;48.114;11.442;2022-08-11T09:22:42;23.60;85.50
14122;DHT22;7139;48.114;11.442;2022-08-11T09:25:30;23.70;85.20
14122;DHT22;7139;48.114;11.442;2022-08-11T09:28:16;23.90;85.10
14122;DHT22;7139;48.114;11.442;2022-08-11T09:30:46;24.00;84.00
14122;DHT22;7139;48.114;11.442;2022-08-11T09:33:19;24.00;82.70
14122;DHT22;7139;48.114;11.442;2022-08-11T09:35:47;24.20;83.70
14122;DHT22;7139;48.114;11.442;2022-08-11T09:38:16;24.40;83.80
14122;DHT22;7139;48.114;11.442;2022-08-11T09:41:02;24.50;80.70
14122;DHT22;7139;48.114;11.442;2022-08-11T09:43:32;24.60;81.40
14122;DHT22;7139;48.114;11.442;2022-08-11T09:46:23;24.50;80.00
14122;DHT22;7139;48.114;11.442;2022-08-11T09:48:52;24.70;81.70
14122;DHT22;7139;48.114;11.442;2022-08-11T09:51:21;24.80;81.00
14122;DHT22;7139;48.114;11.442;2022-08-11T09:53:49;24.80;80.60
14122;DHT22;7139;48.114;11.442;2022-08-11T09:56:18;24.90;80.50
14122;DHT22;7139;48.114;11.442;2022-08-11T09:59:04;25.10;78.80
14122;DHT22;7139;48.114;11.442;2022-08-11T10:01:35;25.10;77.60
14122;DHT22;7139;48.114;11.442;2022-08-11T10:04:09;25.10;78.80
14122;DHT22;7139;48.114;11.442;2022-08-11T10:06:40;25.30;80.00
14122;DHT22;7139;48.114;11.442;2022-08-11T10:09:28;25.50;80.60
14122;DHT22;7139;48.114;11.442;2022-08-11T10:11:56;25.60;77.00
14122;DHT22;7139;48.114;11.442;2022-08-11T10:14:25;25.80;77.90
14122;DHT22;7139;48.114;11.442;2022-08-11T10:17:12;26.00;76.90
14122;DHT22;7139;48.114;11.442;2022-08-11T10:19:42;26.10;75.20
14122;DHT22;7139;48.114;11.442;2022-08-11T10:22:11;26.20;78.60
14122;DHT22;7139;48.114;11.442;2022-08-11T10:24:58;26.30;74.90
14122;DHT22;7139;48.114;11.442;2022-08-11T10:27:42;26.40;74.80
14122;DHT22;7139;48.114;11.442;2022-08-11T10:30:10;26.60;73.80
14122;DHT22;7139;48.114;11.442;2022-08-11T10:32:56;26.60;75.30
14122;DHT22;7139;48.114;11.442;2022-08-11T10:35:42;26.70;72.30
14122;DHT22;7139;48.114;11.442;2022-08-11T10:38:12;26.60;71.00
14122;DHT22;7139;48.114;11.442;2022-08-11T10:40:44;26.60;72.90
14122;DHT22;7139;48.114;11.442;2022-08-11T10:43:12;26.60;68.90
14122;DHT22;7139;48.114;11.442;2022-08-11T10:45:40;26.50;70.80
14122;DHT22;7139;48.114;11.442;2022-08-11T10:48:28;26.50;69.30
14122;DHT22;7139;48.114;11.442;2022-08-11T10:50:55;26.60;72.60
14122;DHT22;7139;48.114;11.442;2022-08-11T10:53:45;26.80;72.00
14122;DHT22;7139;48.114;11.442;2022-08-11T10:56:32;27.10;70.80
14122;DHT22;7139;48.114;11.442;2022-08-11T10:59:18;27.10;69.60
14122;DHT22;7139;48.114;11.442;2022-08-11T11:01:45;27.00;71.20
14122;DHT22;7139;48.114;11.442;2022-08-11T11:04:16;27.10;70.40
14122;DHT22;7139;48.114;11.442;2022-08-11T11:06:49;27.20;70.00
14122;DHT22;7139;48.114;11.442;2022-08-11T11:09:23;27.40;69.20
14122;DHT22;7139;48.114;11.442;2022-08-11T11:11:57;27.30;67.50
14122;DHT22;7139;48.114;11.442;2022-08-11T11:14:43;27.50;68.80
14122;DHT22;7139;48.114;11.442;2022-08-11T11:17:28;27.50;68.40
14122;DHT22;7139;48.114;11.442;2022-08-11T11:20:19;27.60;69.80
14122;DHT22;7139;48.114;11.442;2022-08-11T11:22:49;27.80;66.50
14122;DHT22;7139;48.114;11.442;2022-08-11T11:25:21;27.70;67.70
14122;DHT22;7139;48.114;11.442;2022-08-11T11:28:00;27.60;68.00
14122;DHT22;7139;48.114;11.442;2022-08-11T11:30:36;27.70;67.20
14122;DHT22;7139;48.114;11.442;2022-08-11T11:33:10;27.70;71.20
14122;DHT22;7139;48.114;11.442;2022-08-11T11:35:51;27.80;68.60
14122;DHT22;7139;48.114;11.442;2022-08-11T11:38:19;27.80;70.30
14122;DHT22;7139;48.114;11.442;2022-08-11T11:40:46;28.00;67.50
14122;DHT22;7139;48.114;11.442;2022-08-11T11:43:35;28.20;68.90
14122;DHT22;7139;48.114;11.442;2022-08-11T11:46:04;28.30;67.30
14122;DHT22;7139;48.114;11.442;2022-08-11T11:48:33;28.50;66.40
14122;DHT22;7139;48.114;11.442;2022-08-11T11:51:02;28.30;63.60
14122;DHT22;7139;48.114;11.442;2022-08-11T11:53:30;28.20;66.10
14122;DHT22;7139;48.114;11.442;2022-08-11T11:55:57;28.20;66.60
14122;DHT22;7139;48.114;11.442;2022-08-11T11:58:25;28.20;66.80
14122;DHT22;7139;48.114;11.442;2022-08-11T12:01:11;28.20;66.00
14122;DHT22;7139;48.114;11.442;2022-08-11T12:03:46;28.40;67.50
14122;DHT22;7139;48.114;11.442;2022-08-11T12:06:17;28.50;66.70
14122;DHT22;7139;48.114;11.442;2022-08-11T12:08:49;28.50;67.10
14122;DHT22;7139;48.114;11.442;2022-08-11T12:11:18;28.50;63.20
14122;DHT22;7139;48.114;11.442;2022-08-11T12:14:05;28.60;65.20
14122;DHT22;7139;48.114;11.442;2022-08-11T12:16:35;28.70;65.60
14122;DHT22;7139;48.114;11.442;2022-08-11T12:19:04;28.70;62.50
14122;DHT22;7139;48.114;11.442;2022-08-11T12:21:34;28.70;64.90
14122;DHT22;7139;48.114;11.442;2022-08-11T12:24:02;28.60;63.50
14122;DHT22;7139;48.114;11.442;2022-08-11T12:26:47;28.50;63.10
14122;DHT22;7139;48.114;11.442;2022-08-11T12:29:32;28.50;63.90
14122;DHT22;7139;48.114;11.442;2022-08-11T12:31:59;28.50;62.00
14122;DHT22;7139;48.114;11.442;2022-08-11T12:34:27;28.50;60.90
14122;DHT22;7139;48.114;11.442;2022-08-11T12:36:57;28.40;63.10
14122;DHT22;7139;48.114;11.442;2022-08-11T12:39:26;28.40;63.90
14122;DHT22;7139;48.114;11.442;2022-08-11T12:42:09;28.40;61.80
14122;DHT22;7139;48.114;11.442;2022-08-11T12:44:56;28.30;62.80
14122;DHT22;7139;48.114;11.442;2022-08-11T12:47:42;28.50;64.00
14122;DHT22;7139;48.114;11.442;2022-08-11T12:50:30;28.60;63.70
14122;DHT22;7139;48.114;11.442;2022-08-11T12:53:18;28.70;62.60
14122;DHT22;7139;48.114;11.442;2022-08-11T12:55:47;28.70;61.60
14122;DHT22;7139;48.114;11.442;2022-08-11T12:58:32;28.60;61.30
14122;DHT22;7139;48.114;11.442;2022-08-11T13:01:00;28.60;63.50
14122;DHT22;7139;48.114;11.442;2022-08-11T13:03:44;28.70;62.70
14122;DHT22;7139;48.114;11.442;2022-08-11T13:06:29;28.80;62.10
14122;DHT22;7139;48.114;11.442;2022-08-11T13:08:58;28.90;62.50
14122;DHT22;7139;48.114;11.442;2022-08-11T13:11:26;29.00;61.90
14122;DHT22;7139;48.114;11.442;2022-08-11T13:14:11;29.00;60.10
14122;DHT22;7139;48.114;11.442;2022-08-11T13:16:39;29.00;60.30
14122;DHT22;7139;48.114;11.442;2022-08-11T13:19:21;29.00;62.80
14122;DHT22;7139;48.114;11.442;2022-08-11T13:21:49;28.90;61.10
14122;DHT22;7139;48.114;11.442;2022-08-11T13:24:19;28.70;59.40
14122;DHT22;7139;48.114;11.442;2022-08-11T13:26:47;28.60;61.00
14122;DHT22;7139;48.114;11.442;2022-08-11T13:29:17;28.70;61.40
14122;DHT22;7139;48.114;11.442;2022-08-11T13:31:45;28.80;61.70
14122;DHT22;7139;48.114;11.442;2022-08-11T13:34:14;28.80;61.80
14122;DHT22;7139;48.114;11.442;2022-08-11T13:36:41;28.80;59.60
14122;DHT22;7139;48.114;11.442;2022-08-11T13:39:09;28.70;60.80
14122;DHT22;7139;48.114;11.442;2022-08-11T13:41:40;28.50;60.00
14122;DHT22;7139;48.114;11.442;2022-08-11T13:44:10;28.20;61.20
14122;DHT22;7139;48.114;11.442;2022-08-11T13:46:39;28.10;61.40
14122;DHT22;7139;48.114;11.442;2022-08-11T13:49:08;28.10;60.90
14122;DHT22;7139;48.114;11.442;2022-08-11T13:51:36;28.00;63.20
14122;DHT22;7139;48.114;11.442;2022-08-11T13:54:06;28.00;62.50
14122;DHT22;7139;48.114;11.442;2022-08-11T13:56:36;28.00;63.70
14122;DHT22;7139;48.114;11.442;2022-08-11T13:59:06;28.10;64.70
14122;DHT22;7139;48.114;11.442;2022-08-11T14:01:36;28.30;62.20
14122;DHT22;7139;48.114;11.442;2022-08-11T14:04:07;28.20;62.50
14122;DHT22;7139;48.114;11.442;2022-08-11T14:06:37;28.20;60.20
14122;DHT22;7139;48.114;11.442;2022-08-11T14:09:07;28.20;59.30
14122;DHT22;7139;48.114;11.442;2022-08-11T14:11:35;28.10;62.00
14122;DHT22;7139;48.114;11.442;2022-08-11T14:14:32;28.00;61.30
14122;DHT22;7139;48.114;11.442;2022-08-11T14:17:04;27.90;61.10
14122;DHT22;7139;48.114;11.442;2022-08-11T14:19:38;28.00;60.00
14122;DHT22;7139;48.114;11.442;2022-08-11T14:22:05;28.00;60.50
14122;DHT22;7139;48.114;11.442;2022-08-11T14:24:32;28.10;60.20
14122;DHT22;7139;48.114;11.442;2022-08-11T14:27:00;28.20;61.60
14122;DHT22;7139;48.114;11.442;2022-08-11T14:29:28;28.30;62.40
14122;DHT22;7139;48.114;11.442;2022-08-11T14:32:00;28.30;58.60
14122;DHT22;7139;48.114;11.442;2022-08-11T14:34:30;28.20;59.70
14122;DHT22;7139;48.114;11.442;2022-08-11T14:37:00;28.10;60.60
14122;DHT22;7139;48.114;11.442;2022-08-11T14:39:30;28.10;61.10
14122;DHT22;7139;48.114;11.442;2022-08-11T14:42:02;28.00;58.90
14122;DHT22;7139;48.114;11.442;2022-08-11T14:44:48;27.90;59.80
14122;DHT22;7139;48.114;11.442;2022-08-11T14:47:36;27.90;60.60
14122;DHT22;7139;48.114;11.442;2022-08-11T14:50:04;27.90;59.60
14122;DHT22;7139;48.114;11.442;2022-08-11T14:52:33;27.90;62.00
14122;DHT22;7139;48.114;11.442;2022-08-11T14:55:00;27.90;62.70
14122;DHT22;7139;48.114;11.442;2022-08-11T14:57:46;27.90;61.40
14122;DHT22;7139;48.114;11.442;2022-08-11T15:00:14;27.80;61.50
14122;DHT22;7139;48.114;11.442;2022-08-11T15:02:45;27.70;61.50
14122;DHT22;7139;48.114;11.442;2022-08-11T15:05:31;27.50;59.90
14122;DHT22;7139;48.114;11.442;2022-08-11T15:07:58;27.30;61.10
14122;DHT22;7139;48.114;11.442;2022-08-11T15:10:26;27.20;63.30
14122;DHT22;7139;48.114;11.442;2022-08-11T15:12:53;27.10;62.70
14122;DHT22;7139;48.114;11.442;2022-08-11T15:15:21;27.00;62.00
14122;DHT22;7139;48.114;11.442;2022-08-11T15:18:10;26.90;61.10
14122;DHT22;7139;48.114;11.442;2022-08-11T15:20:38;26.80;63.30
14122;DHT22;7139;48.114;11.442;2022-08-11T15:23:22;26.60;62.60
14122;DHT22;7139;48.114;11.442;2022-08-11T15:26:10;26.60;62.20
14122;DHT22;7139;48.114;11.442;2022-08-11T15:28:41;26.70;63.20
14122;DHT22;7139;48.114;11.442;2022-08-11T15:31:28;26.60;62.70
14122;DHT22;7139;48.114;11.442;2022-08-11T15:34:18;26.60;62.10
14122;DHT22;7139;48.114;11.442;2022-08-11T15:37:06;26.60;61.80
14122;DHT22;7139;48.114;11.442;2022-08-11T15:39:55;26.70;60.90
14122;DHT22;7139;48.114;11.442;2022-08-11T15:42:46;26.70;61.20
14122;DHT22;7139;48.114;11.442;2022-08-11T15:45:32;26.80;61.60
14122;DHT22;7139;48.114;11.442;2022-08-11T15:48:21;26.90;62.10
14122;DHT22;7139;48.114;11.442;2022-08-11T15:50:57;26.90;59.20
14122;DHT22;7139;48.114;11.442;2022-08-11T15:53:31;26.90;58.90
14122;DHT22;7139;48.114;11.442;2022-08-11T15:55:59;26.90;61.60
14122;DHT22;7139;48.114;11.442;2022-08-11T15:58:35;26.80;60.90
14122;DHT22;7139;48.114;11.442;2022-08-11T16:01:23;26.80;60.20
14122;DHT22;7139;48.114;11.442;2022-08-11T16:04:16;26.80;60.30
14122;DHT22;7139;48.114;11.442;2022-08-11T16:06:49;26.70;61.40
14122;DHT22;7139;48.114;11.442;2022-08-11T16:09:21;26.70;60.00
14122;DHT22;7139;48.114;11.442;2022-08-11T16:11:50;26.60;60.60
14122;DHT22;7139;48.114;11.442;2022-08-11T16:14:19;26.60;59.40
14122;DHT22;7139;48.114;11.442;2022-08-11T16:17:06;26.50;60.20
14122;DHT22;7139;48.114;11.442;2022-08-11T16:19:36;26.40;58.90
14122;DHT22;7139;48.114;11.442;2022-08-11T16:22:08;26.30;61.30
14122;DHT22;7139;48.114;11.442;2022-08-11T16:24:38;26.20;60.30
14122;DHT22;7139;48.114;11.442;2022-08-11T16:27:08;26.10;60.20
14122;DHT22;7139;48.114;11.442;2022-08-11T16:29:41;26.00;59.80
14122;DHT22;7139;48.114;11.442;2022-08-11T16:32:11;25.90;60.20
14122;DHT22;7139;48.114;11.442;2022-08-11T16:34:49;25.70;60.30
14122;DHT22;7139;48.114;11.442;2022-08-11T16:37:36;25.50;60.10
14122;DHT22;7139;48.114;11.442;2022-08-11T16:40:21;25.50;59.50
14122;DHT22;7139;48.114;11.442;2022-08-11T16:42:49;25.40;59.90
14122;DHT22;7139;48.114;11.442;2022-08-11T16:45:35;25.40;59.40
14122;DHT22;7139;48.114;11.442;2022-08-11T16:48:21;25.30;60.70
14122;DHT22;7139;48.114;11.442;2022-08-11T16:50:48;25.20;59.30
14122;DHT22;7139;48.114;11.442;2022-08-11T16:53:17;25.20;61.40
14122;DHT22;7139;48.114;11.442;2022-08-11T16:55:45;25.10;60.70
14122;DHT22;7139;48.114;11.442;2022-08-11T16:58:14;25.10;60.50
14122;DHT22;7139;48.114;11.442;2022-08-11T17:00:59;25.10;59.70
14122;DHT22;7139;48.114;11.442;2022-08-11T17:03:28;25.10;59.50
14122;DHT22;7139;48.114;11.442;2022-08-11T17:06:13;25.10;59.00
14122;DHT22;7139;48.114;11.442;2022-08-11T17:09:01;25.00;59.50
14122;DHT22;7139;48.114;11.442;2022-08-11T17:11:51;24.90;59.30
14122;DHT22;7139;48.114;11.442;2022-08-11T17:14:42;24.90;60.20
14122;DHT22;7139;48.114;11.442;2022-08-11T17:17:12;24.90;60.80
14122;DHT22;7139;48.114;11.442;2022-08-11T17:19:46;24.90;60.80
14122;DHT22;7139;48.114;11.442;2022-08-11T17:22:15;24.90;61.00
14122;DHT22;7139;48.114;11.442;2022-08-11T17:25:08;24.90;60.80